^^
Your Local Weather - Clay, NY Station Historical Data
Daily Summary for January 14, 2018 Units:  English    Metric   Both
« Previous Day
Next Day »
Daily Weekly Monthly Yearly Custom
  High: Low: Average:
Temperature: 13.3 °F -16.2 °F -2.2 °F
Dew Point: 10.7 °F -20.5 °F -5.7 °F
Humidity: 89% 80% 85%
Wind Speed: 2.0mph 0.0mph 0.2mph
Wind Gust: 5.0mph - -
Wind- - SW
Pressure: 30.76 in 30.53 in -
Precipitation: 0.03 in    
Historical Graphs
 
 
Tabular Data for January 14, 2018
Time Temperature Dew Point Pressure Wind Wind Speed Wind Gust Humidity Rainfall Rate (Hourly) solar
00:02 -1.4 °F -4.8 °F 30.53 in Calm     85% 0.00 in 0 W/m2
00:08 -1.9 °F -5.3 °F 30.53 in Calm     85% 0.00 in 0 W/m2
00:14 -2.3 °F -5.7 °F 30.53 in Calm     85% 0.00 in 0 W/m2
00:19 -2.7 °F -6.1 °F 30.53 in Calm     85% 0.00 in 0 W/m2
00:26 -2.9 °F -6.3 °F 30.53 in Calm     85% 0.00 in 0 W/m2
00:36 -3.3 °F -6.7 °F 30.53 in Calm     85% 0.00 in 0 W/m2
00:48 -4.1 °F -7.7 °F 30.55 in Calm     84% 0.00 in 0 W/m2
00:54 -4.5 °F -8.1 °F 30.55 in Calm     84% 0.00 in 0 W/m2
01:00 -4.9 °F -8.5 °F 30.55 in Calm     84% 0.00 in 0 W/m2
01:12 -5.5 °F -9.1 °F 30.56 in Calm     84% 0.00 in 0 W/m2
01:18 -5.8 °F -9.4 °F 30.56 in Calm     84% 0.00 in 0 W/m2
01:24 -6.0 °F -9.6 °F 30.56 in Calm     84% 0.00 in 0 W/m2
01:30 -6.3 °F -10.1 °F 30.57 in Calm     83% 0.00 in 0 W/m2
01:36 -6.5 °F -10.3 °F 30.57 in Calm     83% 0.00 in 0 W/m2
01:42 -6.9 °F -10.7 °F 30.58 in Calm     83% 0.00 in 0 W/m2
01:48 -7.3 °F -11.1 °F 30.58 in Calm     83% 0.00 in 0 W/m2
01:54 -7.5 °F -11.3 °F 30.58 in Calm     83% 0.00 in 0 W/m2
02:00 -7.8 °F -11.6 °F 30.58 in Calm     83% 0.00 in 0 W/m2
02:06 -7.9 °F -11.7 °F 30.58 in Calm     83% 0.00 in 0 W/m2
02:12 -8.1 °F -11.9 °F 30.58 in Calm     83% 0.00 in 0 W/m2
02:18 -8.2 °F -12.0 °F 30.58 in Calm     83% 0.00 in 0 W/m2
02:24 -8.3 °F -12.1 °F 30.59 in Calm     83% 0.00 in 0 W/m2
02:30 -8.4 °F -12.2 °F 30.59 in Calm     83% 0.00 in 0 W/m2
02:36 -8.7 °F -12.5 °F 30.60 in Calm     83% 0.00 in 0 W/m2
02:42 -8.9 °F -12.9 °F 30.60 in Calm     82% 0.00 in 0 W/m2
02:48 -9.2 °F -13.2 °F 30.60 in Calm     82% 0.00 in 0 W/m2
02:54 -9.4 °F -13.4 °F 30.60 in Calm     82% 0.00 in 0 W/m2
03:00 -9.5 °F -13.5 °F 30.60 in Calm     82% 0.00 in 0 W/m2
03:06 -9.6 °F -13.6 °F 30.61 in Calm     82% 0.00 in 0 W/m2
03:16 -9.9 °F -13.9 °F 30.61 in Calm     82% 0.00 in 0 W/m2
03:22 -10.1 °F -14.1 °F 30.61 in Calm     82% 0.00 in 0 W/m2
03:28 -10.4 °F -14.4 °F 30.61 in Calm     82% 0.00 in 0 W/m2
03:34 -10.6 °F -14.6 °F 30.61 in Calm     82% 0.00 in 0 W/m2
03:40 -10.7 °F -14.7 °F 30.61 in Calm     82% 0.00 in 0 W/m2
03:46 -10.8 °F -14.8 °F 30.62 in Calm     82% 0.00 in 0 W/m2
03:52 -10.8 °F -14.8 °F 30.62 in Calm     82% 0.00 in 0 W/m2
03:58 -10.9 °F -14.9 °F 30.62 in Calm     82% 0.00 in 0 W/m2
04:04 -10.9 °F -14.9 °F 30.62 in Calm     82% 0.00 in 0 W/m2
04:10 -11.0 °F -15.0 °F 30.63 in Calm     82% 0.00 in 0 W/m2
04:16 -11.1 °F -15.1 °F 30.63 in Calm     82% 0.00 in 0 W/m2
04:28 -11.3 °F -15.3 °F 30.63 in Calm     82% 0.00 in 0 W/m2
04:34 -11.5 °F -15.5 °F 30.63 in Calm     82% 0.00 in 0 W/m2
04:40 -11.6 °F -15.6 °F 30.63 in Calm     82% 0.00 in 0 W/m2
04:46 -11.7 °F -15.7 °F 30.63 in Calm     82% 0.00 in 0 W/m2
04:52 -11.8 °F -15.8 °F 30.63 in Calm     82% 0.00 in 0 W/m2
04:58 -11.9 °F -16.1 °F 30.63 in Calm     81% 0.00 in 0 W/m2
05:08 -12.1 °F -16.3 °F 30.64 in Calm     81% 0.00 in 0 W/m2
05:14 -12.2 °F -16.4 °F 30.64 in Calm     81% 0.00 in 0 W/m2
05:20 -12.5 °F -16.7 °F 30.65 in Calm     81% 0.00 in 0 W/m2
05:26 -12.8 °F -17.0 °F 30.65 in Calm     81% 0.00 in 0 W/m2
05:38 -13.3 °F -17.5 °F 30.65 in Calm     81% 0.00 in 0 W/m2
05:44 -13.6 °F -17.8 °F 30.65 in Calm     81% 0.00 in 0 W/m2
05:50 -13.8 °F -18.0 °F 30.65 in Calm     81% 0.00 in 0 W/m2
05:56 -14.0 °F -18.1 °F 30.66 in Calm     81% 0.00 in 0 W/m2
06:02 -14.0 °F -18.1 °F 30.66 in Calm     81% 0.00 in 0 W/m2
06:08 -14.1 °F -18.2 °F 30.66 in Calm     81% 0.00 in 0 W/m2
06:14 -14.1 °F -18.2 °F 30.66 in Calm     81% 0.00 in 0 W/m2
06:20 -14.2 °F -18.3 °F 30.66 in Calm     81% 0.00 in 0 W/m2
06:40 -14.8 °F -19.2 °F 30.67 in Calm     80% 0.00 in 0 W/m2
06:46 -15.0 °F -19.4 °F 30.68 in Calm     80% 0.00 in 0 W/m2
06:56 -15.3 °F -19.7 °F 30.68 in Calm     80% 0.00 in 0 W/m2
07:02 -15.5 °F -19.9 °F 30.68 in Calm     80% 0.00 in 0 W/m2
07:10 -15.7 °F -20.1 °F 30.68 in Calm     80% 0.00 in 0 W/m2
07:16 -15.9 °F -20.2 °F 30.68 in Calm     80% 0.00 in 0 W/m2
07:22 -16.1 °F -20.4 °F 30.68 in Calm     80% 0.00 in 0 W/m2
07:28 -16.1 °F -20.4 °F 30.69 in Calm     80% 0.00 in 0 W/m2
07:34 -16.2 °F -20.5 °F 30.69 in Calm     80% 0.00 in 0 W/m2
07:40 -16.2 °F -20.5 °F 30.69 in Calm     80% 0.00 in 5 W/m2
07:46 -16.1 °F -20.4 °F 30.69 in Calm     80% 0.00 in 7 W/m2
07:52 -16.1 °F -20.4 °F 30.69 in Calm     80% 0.00 in 7 W/m2
07:58 -16.0 °F -20.3 °F 30.69 in Calm     80% 0.00 in 11 W/m2
08:04 -16.0 °F -20.3 °F 30.70 in Calm     80% 0.00 in 11 W/m2
08:10 -16.1 °F -20.4 °F 30.70 in Calm     80% 0.00 in 12 W/m2
08:16 -16.1 °F -20.4 °F 30.71 in Calm     80% 0.00 in 14 W/m2
08:26 -15.9 °F -20.2 °F 30.71 in Calm     80% 0.00 in 18 W/m2
08:32 -15.5 °F -19.9 °F 30.71 in Calm     80% 0.00 in 76 W/m2
08:38 -15.1 °F -19.2 °F 30.72 in Calm     81% 0.00 in 90 W/m2
08:44 -14.4 °F -18.5 °F 30.72 in Calm     81% 0.00 in 100 W/m2
08:50 -13.4 °F -17.6 °F 30.73 in Calm     81% 0.00 in 109 W/m2
08:58 -11.6 °F -15.6 °F 30.73 in Calm     82% 0.00 in 120 W/m2
09:04 -10.3 °F -14.3 °F 30.73 in Calm     82% 0.00 in 125 W/m2
09:14 -8.2 °F -12.0 °F 30.74 in Calm     83% 0.00 in 137 W/m2
09:20 -6.9 °F -10.5 °F 30.74 in Calm     84% 0.00 in 144 W/m2
09:26 -5.1 °F -8.7 °F 30.74 in Calm     84% 0.00 in 151 W/m2
09:32 -3.4 °F -6.8 °F 30.74 in Calm     85% 0.00 in 160 W/m2
09:44 -0.9 °F -4.1 °F 30.74 in ENE 1.0 mph 2.0 mph 86% 0.00 in 174 W/m2
09:50 0.0 °F -3.2 °F 30.75 in Calm     86% 0.00 in 181 W/m2
09:56 1.0 °F -2.2 °F 30.75 in Calm     86% 0.00 in 186 W/m2
10:02 2.3 °F -0.7 °F 30.76 in Calm     87% 0.00 in 193 W/m2
10:08 2.7 °F -0.5 °F 30.76 in Calm     86% 0.00 in 199 W/m2
10:14 2.9 °F -0.3 °F 30.76 in Calm     86% 0.00 in 204 W/m2
10:20 3.8 °F 0.8 °F 30.76 in Calm     87% 0.00 in 209 W/m2
10:32 4.7 °F 1.7 °F 30.76 in SE 1.0 mph 2.0 mph 87% 0.00 in 220 W/m2
10:44 4.9 °F 1.9 °F 30.76 in ESE 1.0 mph 2.0 mph 87% 0.00 in 229 W/m2
10:50 4.9 °F 1.9 °F 30.76 in ENE 2.0 mph 2.0 mph 87% 0.00 in 236 W/m2
10:56 4.8 °F 1.5 °F 30.76 in ESE 2.0 mph 3.0 mph 86% 0.00 in 239 W/m2
11:02 5.1 °F 2.1 °F 30.76 in SE 1.0 mph 5.0 mph 87% 0.00 in 244 W/m2
11:08 5.5 °F 2.5 °F 30.76 in SE 2.0 mph 5.0 mph 87% 0.00 in 248 W/m2
11:14 5.5 °F 2.5 °F 30.76 in ENE 2.0 mph 2.0 mph 87% 0.00 in 251 W/m2
11:20 5.6 °F 2.6 °F 30.76 in ESE 2.0 mph 3.0 mph 87% 0.00 in 253 W/m2
11:26 6.0 °F 3.0 °F 30.75 in SE 1.0 mph 3.0 mph 87% 0.00 in 257 W/m2
11:38 7.1 °F 4.3 °F 30.75 in SE 1.0 mph 3.0 mph 88% 0.00 in 260 W/m2
11:44 7.5 °F 4.7 °F 30.74 in SE 1.0 mph 3.0 mph 88% 0.00 in 262 W/m2
11:50 7.9 °F 5.1 °F 30.74 in SE 2.0 mph 2.0 mph 88% 0.00 in 264 W/m2
11:56 7.9 °F 5.1 °F 30.74 in SE 1.0 mph 2.0 mph 88% 0.00 in 265 W/m2
12:02 8.3 °F 5.5 °F 30.74 in SE 1.0 mph 2.0 mph 88% 0.00 in 267 W/m2
12:08 8.9 °F 6.1 °F 30.74 in Calm   2.0 mph 88% 0.00 in 276 W/m2
12:14 9.8 °F 7.0 °F 30.74 in Calm     88% 0.00 in 295 W/m2
12:20 10.4 °F 7.6 °F 30.74 in Calm     88% 0.00 in 483 W/m2
12:26 10.6 °F 8.0 °F 30.74 in Calm   1.0 mph 89% 0.00 in 513 W/m2
12:40 10.0 °F 7.2 °F 30.73 in Calm     88% 0.00 in 506 W/m2
12:46 10.0 °F 7.2 °F 30.73 in Calm     88% 0.00 in 503 W/m2
12:52 10.6 °F 7.7 °F 30.73 in Calm   1.0 mph 88% 0.00 in 503 W/m2
12:58 10.9 °F 8.0 °F 30.73 in Calm   1.0 mph 88% 0.00 in 496 W/m2
13:04 11.1 °F 8.2 °F 30.73 in East 1.0 mph 3.0 mph 88% 0.14 in 497 W/m2
13:10 11.1 °F 8.2 °F 30.73 in NNW 1.0 mph 1.0 mph 88% 0.06 in 496 W/m2
13:16 11.1 °F 8.2 °F 30.73 in NNW 1.0 mph 1.0 mph 88% 0.04 in 503 W/m2
13:22 11.2 °F 8.3 °F 30.73 in NNW 1.0 mph 1.0 mph 88% 0.00 in 503 W/m2
13:28 11.6 °F 8.7 °F 30.73 in NNW 1.0 mph 2.0 mph 88% 0.00 in 496 W/m2
13:34 11.8 °F 8.9 °F 30.73 in NNW 1.0 mph 2.0 mph 88% 0.00 in 489 W/m2
13:40 11.9 °F 9.0 °F 30.73 in NNW 1.0 mph 1.0 mph 88% 0.00 in 482 W/m2
13:46 11.9 °F 9.0 °F 30.72 in Calm   1.0 mph 88% 0.00 in 469 W/m2
13:52 12.2 °F 9.3 °F 30.72 in Calm   1.0 mph 88% 0.00 in 457 W/m2
13:58 12.2 °F 9.3 °F 30.72 in Calm   1.0 mph 88% 0.00 in 448 W/m2
14:04 12.1 °F 9.2 °F 30.72 in NNW 1.0 mph 1.0 mph 88% 0.00 in 436 W/m2
14:10 11.8 °F 8.9 °F 30.72 in NNW 1.0 mph 1.0 mph 88% 0.00 in 427 W/m2
14:16 11.7 °F 8.8 °F 30.73 in NNW 1.0 mph 1.0 mph 88% 0.00 in 417 W/m2
14:22 11.6 °F 8.7 °F 30.73 in NNW 1.0 mph 1.0 mph 88% 0.00 in 401 W/m2
14:30 11.8 °F 8.9 °F 30.72 in Calm     88% 0.00 in 381 W/m2
14:36 12.0 °F 9.1 °F 30.72 in NNW 1.0 mph 1.0 mph 88% 0.00 in 371 W/m2
14:42 12.2 °F 9.3 °F 30.72 in NNW 1.0 mph 1.0 mph 88% 0.00 in 359 W/m2
14:48 12.2 °F 9.3 °F 30.72 in Calm   1.0 mph 88% 0.00 in 345 W/m2
14:54 12.3 °F 9.4 °F 30.72 in Calm     88% 0.00 in 332 W/m2
15:00 12.7 °F 9.8 °F 30.72 in West 1.0 mph 1.0 mph 88% 0.00 in 318 W/m2
15:06 12.7 °F 9.8 °F 30.73 in West 1.0 mph 1.0 mph 88% 0.00 in 301 W/m2
15:18 13.3 °F 10.7 °F 30.73 in Calm   3.0 mph 89% 0.00 in 269 W/m2
15:24 13.2 °F 10.6 °F 30.73 in West 1.0 mph 1.0 mph 89% 0.00 in 253 W/m2
15:30 12.9 °F 10.0 °F 30.73 in Calm     88% 0.00 in 237 W/m2
15:40 12.6 °F 9.7 °F 30.73 in Calm     88% 0.00 in 213 W/m2
15:46 12.3 °F 9.4 °F 30.73 in Calm   1.0 mph 88% 0.00 in 181 W/m2
15:52 12.3 °F 9.4 °F 30.73 in Calm     88% 0.00 in 178 W/m2
15:58 12.3 °F 9.4 °F 30.73 in Calm   1.0 mph 88% 0.00 in 144 W/m2
16:04 12.1 °F 9.2 °F 30.73 in Calm     88% 0.00 in 76 W/m2
16:12 11.6 °F 8.7 °F 30.72 in Calm     88% 0.00 in 107 W/m2
16:18 11.3 °F 8.4 °F 30.72 in Calm   3.0 mph 88% 0.00 in 19 W/m2
16:24 10.9 °F 8.0 °F 30.73 in West 1.0 mph 1.0 mph 88% 0.00 in 18 W/m2
16:30 10.5 °F 7.6 °F 30.73 in Calm     88% 0.00 in 16 W/m2
16:36 10.1 °F 7.3 °F 30.73 in Calm     88% 0.00 in 12 W/m2
16:42 9.6 °F 6.8 °F 30.73 in Calm     88% 0.00 in 11 W/m2
16:48 9.0 °F 6.2 °F 30.73 in Calm     88% 0.00 in 7 W/m2
17:00 7.6 °F 4.5 °F 30.72 in Calm     87% 0.00 in 0 W/m2
17:06 7.0 °F 3.9 °F 30.73 in Calm     87% 0.00 in 0 W/m2
17:12 6.5 °F 3.5 °F 30.73 in Calm     87% 0.00 in 0 W/m2
17:24 5.3 °F 2.3 °F 30.73 in Calm     87% 0.00 in 0 W/m2
17:30 4.9 °F 1.9 °F 30.73 in Calm     87% 0.00 in 0 W/m2
17:36 4.6 °F 1.6 °F 30.73 in Calm     87% 0.00 in 0 W/m2
17:42 4.3 °F 1.3 °F 30.73 in Calm     87% 0.00 in 0 W/m2
17:48 3.8 °F 0.8 °F 30.74 in Calm     87% 0.00 in 0 W/m2
17:54 3.3 °F 0.1 °F 30.74 in Calm     86% 0.00 in 0 W/m2
18:00 2.9 °F -0.3 °F 30.73 in Calm     86% 0.00 in 0 W/m2
18:06 2.4 °F -0.8 °F 30.74 in Calm     86% 0.00 in 0 W/m2
18:12 1.9 °F -1.3 °F 30.74 in Calm     86% 0.00 in 0 W/m2
18:18 1.5 °F -1.7 °F 30.74 in Calm     86% 0.00 in 0 W/m2
18:24 1.1 °F -2.1 °F 30.74 in Calm     86% 0.00 in 0 W/m2
18:30 0.8 °F -2.4 °F 30.74 in Calm     86% 0.00 in 0 W/m2
18:36 0.5 °F -2.7 °F 30.74 in Calm     86% 0.00 in 0 W/m2
18:42 0.1 °F -3.1 °F 30.74 in Calm     86% 0.00 in 0 W/m2
18:48 -0.2 °F -3.6 °F 30.74 in Calm     85% 0.00 in 0 W/m2
18:54 -0.4 °F -3.8 °F 30.74 in Calm     85% 0.00 in 0 W/m2
19:00 -0.7 °F -4.1 °F 30.74 in Calm     85% 0.00 in 0 W/m2
19:06 -1.1 °F -4.5 °F 30.74 in Calm     85% 0.00 in 0 W/m2
19:12 -1.6 °F -5.0 °F 30.74 in Calm     85% 0.00 in 0 W/m2
19:18 -2.0 °F -5.4 °F 30.74 in Calm     85% 0.00 in 0 W/m2
19:24 -2.2 °F -5.6 °F 30.74 in Calm     85% 0.00 in 0 W/m2
19:30 -2.3 °F -5.7 °F 30.74 in Calm     85% 0.00 in 0 W/m2
19:36 -2.4 °F -5.8 °F 30.75 in Calm     85% 0.00 in 0 W/m2
19:42 -2.6 °F -6.0 °F 30.74 in Calm     85% 0.00 in 0 W/m2
19:48 -2.9 °F -6.5 °F 30.75 in Calm     84% 0.00 in 0 W/m2
19:54 -3.1 °F -6.7 °F 30.74 in Calm     84% 0.00 in 0 W/m2
20:00 -3.4 °F -7.0 °F 30.74 in Calm     84% 0.00 in 0 W/m2
20:06 -3.6 °F -7.2 °F 30.74 in Calm     84% 0.00 in 0 W/m2
20:18 -4.1 °F -7.7 °F 30.74 in Calm     84% 0.00 in 0 W/m2
20:26 -4.3 °F -7.9 °F 30.73 in Calm   1.0 mph 84% 0.00 in 0 W/m2
20:36 -4.6 °F -8.2 °F 30.73 in Calm   1.0 mph 84% 0.00 in 0 W/m2
20:42 -4.9 °F -8.5 °F 30.73 in Calm     84% 0.00 in 0 W/m2
20:52 -5.2 °F -8.8 °F 30.73 in Calm     84% 0.00 in 0 W/m2
20:58 -5.1 °F -8.7 °F 30.73 in Calm     84% 0.00 in 0 W/m2
21:04 -5.1 °F -8.7 °F 30.72 in Calm     84% 0.00 in 0 W/m2
21:10 -4.7 °F -8.3 °F 30.71 in East 1.0 mph 1.0 mph 84% 0.00 in 0 W/m2
21:16 -4.4 °F -8.0 °F 30.71 in Calm   1.0 mph 84% 0.00 in 0 W/m2
21:22 -4.4 °F -8.0 °F 30.71 in Calm     84% 0.00 in 0 W/m2
21:28 -4.7 °F -8.3 °F 30.71 in Calm     84% 0.00 in 0 W/m2
21:34 -4.9 °F -8.5 °F 30.73 in Calm     84% 0.00 in 0 W/m2
21:40 -5.1 °F -8.7 °F 30.73 in Calm     84% 0.00 in 0 W/m2
21:52 -5.7 °F -9.5 °F 30.73 in Calm     83% 0.00 in 0 W/m2
21:58 -5.9 °F -9.7 °F 30.73 in Calm     83% 0.00 in 0 W/m2
22:06 -6.1 °F -9.9 °F 30.73 in Calm     83% 0.00 in 0 W/m2
22:12 -6.2 °F -10.0 °F 30.73 in Calm     83% 0.00 in 0 W/m2
22:18 -6.4 °F -10.2 °F 30.73 in Calm     83% 0.00 in 0 W/m2
22:24 -6.5 °F -10.3 °F 30.74 in Calm     83% 0.00 in 0 W/m2
22:30 -6.6 °F -10.4 °F 30.74 in Calm     83% 0.00 in 0 W/m2
22:36 -6.6 °F -10.4 °F 30.74 in Calm     83% 0.00 in 0 W/m2
22:42 -6.6 °F -10.4 °F 30.75 in Calm     83% 0.00 in 0 W/m2
22:48 -6.5 °F -10.3 °F 30.74 in Calm   1.0 mph 83% 0.00 in 0 W/m2
22:54 -6.6 °F -10.4 °F 30.74 in Calm     83% 0.00 in 0 W/m2
23:00 -6.6 °F -10.4 °F 30.73 in Calm     83% 0.00 in 0 W/m2
23:06 -6.8 °F -10.6 °F 30.73 in Calm     83% 0.00 in 0 W/m2
23:16 -6.9 °F -10.7 °F 30.73 in Calm   1.0 mph 83% 0.00 in 0 W/m2
23:22 -7.0 °F -10.8 °F 30.72 in Calm     83% 0.00 in 0 W/m2
23:28 -6.8 °F -10.6 °F 30.72 in Calm     83% 0.00 in 0 W/m2
23:34 -6.5 °F -10.1 °F 30.72 in Calm     84% 0.00 in 0 W/m2
23:40 -6.4 °F -10.2 °F 30.72 in Calm   1.0 mph 83% 0.00 in 0 W/m2
23:46 -6.2 °F -10.0 °F 30.72 in Calm   1.0 mph 83% 0.00 in 0 W/m2
23:52 -6.2 °F -10.0 °F 30.72 in Calm     83% 0.00 in 0 W/m2
23:58 -6.4 °F -10.2 °F 30.72 in Calm     83% 0.00 in 0 W/m2
Country Meadow, Clay, NY, USA
Compliments of Weather Underground - 2 mb